Time;durP1;ratioP1;P1;durP2;ratioP2;P2;SDS_P1;SDS_P2;PMS_P1;PMS_P2;Temp;Humidity;BMP_temperature;BMP_pressure;BME280_temperature;BME280_humidity;BME280_pressure;Samples;Min_cycle;Max_cycle;Signal;HPM_P1;HPM_P2
2021/06/15 00:00:37;;;;;;;1.00;0.90;;;18.60;64.70;;;;;;4979174;28;20137;-80
2021/06/15 00:03:03;;;;;;;1.13;0.88;;;18.60;64.70;;;;;;4994622;28;20140;-80
2021/06/15 00:05:29;;;;;;;1.13;0.98;;;18.60;64.80;;;;;;4979087;28;20173;-81
2021/06/15 00:07:55;;;;;;;1.23;1.08;;;18.50;64.80;;;;;;4995328;28;20048;-81
2021/06/15 00:10:23;;;;;;;0.93;0.82;;;18.50;64.90;;;;;;5012270;28;20041;-79
2021/06/15 00:12:50;;;;;;;0.80;0.80;;;18.50;65.00;;;;;;5011966;28;20041;-80
2021/06/15 00:15:16;;;;;;;0.98;0.80;;;18.50;65.10;;;;;;4995165;28;20046;-80
2021/06/15 00:17:43;;;;;;;1.45;0.77;;;18.50;65.10;;;;;;4979170;28;20050;-80
2021/06/15 00:20:10;;;;;;;1.05;0.63;;;18.40;65.00;;;;;;4995146;28;20056;-78
2021/06/15 00:22:35;;;;;;;0.75;0.75;;;18.40;65.10;;;;;;4995136;28;20065;-80
2021/06/15 00:25:02;;;;;;;1.00;0.80;;;18.40;65.10;;;;;;5011433;28;20100;-78
2021/06/15 00:27:29;;;;;;;1.63;0.80;;;18.40;65.10;;;;;;5011423;28;20124;-78
2021/06/15 00:29:55;;;;;;;1.00;0.70;;;18.30;65.20;;;;;;5011292;28;20034;-81
2021/06/15 00:35:48;;;;;;;0.68;0.68;;;18.20;65.30;;;;;;4970209;28;20061;-79
2021/06/15 00:38:15;;;;;;;1.05;0.88;;;18.30;65.40;;;;;;4910918;29;20066;-80
2021/06/15 00:40:41;;;;;;;1.00;0.93;;;18.40;65.50;;;;;;4914066;29;20051;-80
2021/06/15 00:43:40;;;;;;;1.52;1.05;;;18.30;66.20;;;;;;4875525;29;20044;-79
2021/06/15 00:46:06;;;;;;;0.88;0.82;;;18.20;65.60;;;;;;4855526;29;20049;-79
2021/06/15 00:48:36;;;;;;;0.85;0.85;;;18.20;65.60;;;;;;4842565;29;20050;-79
2021/06/15 00:51:04;;;;;;;1.30;1.00;;;18.10;65.70;;;;;;4857516;29;20049;-78
2021/06/15 00:53:30;;;;;;;1.13;0.80;;;18.10;66.40;;;;;;4857375;29;20042;-79
2021/06/15 00:55:57;;;;;;;0.90;0.85;;;18.10;65.80;;;;;;4857515;29;20106;-78
2021/06/15 00:58:23;;;;;;;0.75;0.75;;;18.10;65.90;;;;;;4857516;29;20049;-79
2021/06/15 01:00:49;;;;;;;0.70;0.70;;;18.00;65.90;;;;;;4842448;29;20439;-79
2021/06/15 01:03:16;;;;;;;1.05;0.80;;;18.00;66.00;;;;;;4842004;29;20088;-79
2021/06/15 01:05:44;;;;;;;0.77;0.65;;;18.00;66.10;;;;;;4850037;29;20084;-80
2021/06/15 01:08:33;;;;;;;0.80;0.80;;;18.00;66.20;;;;;;4860340;29;20045;-79
2021/06/15 01:11:11;;;;;;;1.02;0.80;;;17.90;66.20;;;;;;4875852;29;20033;-79
2021/06/15 01:14:02;;;;;;;0.82;0.80;;;17.90;66.30;;;;;;4885255;29;20047;-79
2021/06/15 01:16:41;;;;;;;0.93;0.60;;;17.80;66.30;;;;;;4978088;28;20108;-78
2021/06/15 01:19:24;;;;;;;0.60;0.60;;;17.90;66.40;;;;;;4978064;28;20034;-79
2021/06/15 01:22:14;;;;;;;0.60;0.60;;;17.80;66.40;;;;;;4992578;28;20048;-79
2021/06/15 01:25:06;;;;;;;0.93;0.50;;;17.80;66.40;;;;;;4993186;28;20030;-79
2021/06/15 01:27:49;;;;;;;0.95;0.82;;;17.80;66.40;;;;;;4977895;28;20121;-78
2021/06/15 01:30:17;;;;;;;0.80;0.60;;;17.70;66.40;;;;;;4994186;28;20149;-79
2021/06/15 01:32:51;;;;;;;1.00;0.60;;;17.70;66.40;;;;;;4993853;28;20369;-79
2021/06/15 01:35:19;;;;;;;0.60;0.60;;;17.70;66.50;;;;;;4992477;28;20030;-79
2021/06/15 01:37:54;;;;;;;0.47;0.47;;;17.70;66.50;;;;;;5009337;28;20070;-78
2021/06/15 01:40:26;;;;;;;0.60;0.60;;;17.70;67.30;;;;;;4991571;28;20045;-79
2021/06/15 01:42:57;;;;;;;0.50;0.50;;;17.70;66.60;;;;;;4975962;28;20045;-78
2021/06/15 01:45:29;;;;;;;0.40;0.40;;;17.60;66.60;;;;;;5008804;28;20643;-78
2021/06/15 01:48:20;;;;;;;0.43;0.43;;;17.60;66.70;;;;;;5008893;28;20045;-79
2021/06/15 01:50:48;;;;;;;0.75;0.68;;;17.60;66.70;;;;;;5009865;28;20041;-79
2021/06/15 01:53:17;;;;;;;0.60;0.60;;;17.60;66.70;;;;;;5008188;28;20038;-79
2021/06/15 01:55:49;;;;;;;0.73;0.73;;;17.60;66.80;;;;;;5010518;28;20077;-79
2021/06/15 01:58:16;;;;;;;0.50;0.50;;;17.60;66.70;;;;;;4992112;28;20042;-80
2021/06/15 02:00:44;;;;;;;0.57;0.50;;;17.60;66.70;;;;;;4977628;28;20511;-79
2021/06/15 02:03:11;;;;;;;0.52;0.43;;;17.50;66.70;;;;;;4992159;28;20969;-79
2021/06/15 02:05:46;;;;;;;0.68;0.47;;;17.50;66.70;;;;;;4993626;28;20041;-79
2021/06/15 02:08:16;;;;;;;0.52;0.52;;;17.50;66.80;;;;;;5008407;28;20042;-80
2021/06/15 02:10:43;;;;;;;0.77;0.70;;;17.40;66.80;;;;;;5009907;28;20100;-80
2021/06/15 02:13:09;;;;;;;0.50;0.50;;;17.50;66.90;;;;;;5009243;28;20105;-79
2021/06/15 02:15:36;;;;;;;0.68;0.50;;;17.40;66.90;;;;;;4993539;28;20050;-79
2021/06/15 02:18:03;;;;;;;0.57;0.57;;;17.50;66.90;;;;;;5008026;28;20058;-79
2021/06/15 02:20:34;;;;;;;0.70;0.60;;;17.40;66.80;;;;;;5011105;28;20436;-79
2021/06/15 02:23:02;;;;;;;;;;;17.40;66.90;;;;;;4976574;28;20037;-79
2021/06/15 02:25:34;;;;;;;1.27;0.52;;;17.40;66.80;;;;;;4993654;28;19992;-79
2021/06/15 02:28:00;;;;;;;0.40;0.40;;;17.40;66.70;;;;;;5013221;28;20038;-79
2021/06/15 02:30:26;;;;;;;0.43;0.43;;;17.30;66.60;;;;;;4978986;28;20391;-79
2021/06/15 02:32:58;;;;;;;0.30;0.30;;;17.40;66.70;;;;;;4980675;28;20033;-79
2021/06/15 02:35:25;;;;;;;0.60;0.40;;;17.30;66.80;;;;;;4996039;28;20380;-80
2021/06/15 02:38:00;;;;;;;0.50;0.50;;;17.30;66.80;;;;;;4980422;28;20042;-79
2021/06/15 02:40:27;;;;;;;0.73;0.60;;;17.40;67.50;;;;;;4980370;28;20038;-79
2021/06/15 02:42:55;;;;;;;0.50;0.50;;;17.30;66.80;;;;;;4997033;28;20042;-79
2021/06/15 02:45:25;;;;;;;0.50;0.50;;;17.30;66.80;;;;;;5011044;28;20516;-79
2021/06/15 02:47:53;;;;;;;0.60;0.60;;;17.30;66.80;;;;;;4995378;28;20496;-79
2021/06/15 02:50:20;;;;;;;0.30;0.30;;;17.30;67.50;;;;;;5010643;28;20038;-80
2021/06/15 02:52:53;;;;;;;0.40;0.40;;;17.30;66.90;;;;;;4996730;28;20033;-79
2021/06/15 02:55:27;;;;;;;0.82;0.60;;;17.30;67.00;;;;;;4980053;28;20030;-80
2021/06/15 02:57:56;;;;;;;0.82;0.65;;;17.30;67.00;;;;;;4980095;28;20049;-81
2021/06/15 03:00:22;;;;;;;0.55;0.55;;;17.20;66.90;;;;;;4980194;28;20038;-79
2021/06/15 03:02:49;;;;;;;0.50;0.50;;;17.30;67.00;;;;;;4996197;28;20038;-79
2021/06/15 03:05:17;;;;;;;0.52;0.45;;;17.30;67.10;;;;;;5012362;28;20026;-79
2021/06/15 03:07:45;;;;;;;0.73;0.40;;;17.30;67.00;;;;;;5013721;28;20395;-79
2021/06/15 03:10:11;;;;;;;0.63;0.57;;;17.40;67.00;;;;;;4996223;28;20049;-79
2021/06/15 03:12:53;;;;;;;0.40;0.40;;;17.40;67.00;;;;;;4979709;28;20479;-79
2021/06/15 03:15:25;;;;;;;0.25;0.25;;;17.30;67.10;;;;;;4996296;28;20061;-80
2021/06/15 03:18:01;;;;;;;0.43;0.40;;;17.40;67.20;;;;;;4979941;28;20125;-80
2021/06/15 03:20:28;;;;;;;0.38;0.32;;;17.30;67.10;;;;;;4995939;28;20117;-79
2021/06/15 03:23:10;;;;;;;0.70;0.43;;;17.30;67.20;;;;;;4979687;28;20030;-79
2021/06/15 03:25:37;;;;;;;1.30;0.60;;;17.30;67.30;;;;;;4995555;28;20034;-79
2021/06/15 03:28:11;;;;;;;1.45;0.60;;;17.20;67.20;;;;;;5012401;28;20042;-80
2021/06/15 03:30:37;;;;;;;0.30;0.30;;;17.30;67.30;;;;;;4979555;28;20396;-79
2021/06/15 03:33:08;;;;;;;0.50;0.50;;;17.30;67.30;;;;;;4995755;28;20034;-80
2021/06/15 03:35:40;;;;;;;1.58;0.93;;;17.10;67.30;;;;;;4994386;28;20435;-80
2021/06/15 03:38:10;;;;;;;0.63;0.45;;;17.20;67.40;;;;;;4977775;28;20045;-79
2021/06/15 03:40:41;;;;;;;0.50;0.50;;;17.20;67.40;;;;;;4995854;28;20049;-78
2021/06/15 03:43:08;;;;;;;0.60;0.60;;;17.20;67.30;;;;;;4978125;28;20038;-79
2021/06/15 03:45:38;;;;;;;0.38;0.38;;;17.30;67.30;;;;;;4994584;28;20038;-79
2021/06/15 03:48:05;;;;;;;0.43;0.43;;;17.30;67.30;;;;;;4993757;28;20042;-80
2021/06/15 03:50:34;;;;;;;0.88;0.45;;;17.20;67.20;;;;;;5012018;28;20030;-79
2021/06/15 03:53:01;;;;;;;0.80;0.40;;;17.20;67.10;;;;;;4993765;28;20026;-80
2021/06/15 03:55:29;;;;;;;0.50;0.50;;;17.30;67.20;;;;;;4994177;28;20041;-80
2021/06/15 03:57:57;;;;;;;0.52;0.50;;;17.30;67.10;;;;;;5013084;28;20388;-80
2021/06/15 04:00:24;;;;;;;0.40;0.40;;;17.30;67.10;;;;;;5011914;28;20065;-79
2021/06/15 04:02:54;;;;;;;0.68;0.47;;;17.30;67.00;;;;;;4993742;28;20452;-79
2021/06/15 04:05:22;;;;;;;0.30;0.30;;;17.40;67.00;;;;;;5010761;28;20121;-79
2021/06/15 04:07:51;;;;;;;0.65;0.30;;;17.30;66.90;;;;;;4979204;28;20092;-78
2021/06/15 04:10:19;;;;;;;0.52;0.40;;;17.30;66.90;;;;;;4995723;28;20045;-79
2021/06/15 04:12:46;;;;;;;0.35;0.35;;;17.30;66.80;;;;;;4995766;28;20046;-79
2021/06/15 04:15:13;;;;;;;0.30;0.30;;;17.30;66.80;;;;;;5012543;28;20372;-79
2021/06/15 04:17:45;;;;;;;0.95;0.40;;;17.30;66.70;;;;;;5013614;28;20046;-79
2021/06/15 04:20:13;;;;;;;0.43;0.30;;;17.40;66.70;;;;;;5010592;28;20064;-79
2021/06/15 04:22:49;;;;;;;0.68;0.45;;;17.40;66.60;;;;;;4979255;28;20125;-79
2021/06/15 04:25:29;;;;;;;0.30;0.30;;;17.40;66.50;;;;;;4977674;28;20049;-80
2021/06/15 04:27:55;;;;;;;1.35;0.40;;;17.40;66.40;;;;;;4995130;28;20469;-78
2021/06/15 04:30:22;;;;;;;0.85;0.50;;;17.40;66.30;;;;;;4995369;28;20053;-79
2021/06/15 04:32:59;;;;;;;0.65;0.40;;;17.40;66.30;;;;;;4995557;28;20041;-78
2021/06/15 04:35:37;;;;;;;0.57;0.40;;;17.50;66.20;;;;;;4978518;28;20038;-80
2021/06/15 04:38:09;;;;;;;0.30;0.30;;;17.50;66.00;;;;;;5009638;28;20046;-82
2021/06/15 04:40:38;;;;;;;0.40;0.40;;;17.60;66.00;;;;;;4993655;28;20189;-82
2021/06/15 04:43:21;;;;;;;0.63;0.40;;;17.50;65.90;;;;;;4978670;28;20038;-80
2021/06/15 04:45:49;;;;;;;0.30;0.30;;;17.50;65.90;;;;;;4995006;28;20042;-80
2021/06/15 04:48:23;;;;;;;0.55;0.40;;;17.50;66.50;;;;;;5011431;28;20077;-80
2021/06/15 04:50:50;;;;;;;0.30;0.20;;;17.50;65.90;;;;;;4993563;28;20042;-79
2021/06/15 04:53:17;;;;;;;0.63;0.30;;;17.50;65.90;;;;;;4978530;28;20096;-79
2021/06/15 04:55:43;;;;;;;0.30;0.30;;;17.40;66.00;;;;;;5012251;28;20053;-80
2021/06/15 04:58:10;;;;;;;0.30;0.30;;;17.40;66.00;;;;;;5011721;28;20042;-80
2021/06/15 05:00:38;;;;;;;0.20;0.20;;;17.40;66.00;;;;;;5012587;28;20046;-81
2021/06/15 05:03:06;;;;;;;0.35;0.35;;;17.30;65.90;;;;;;4992926;28;20049;-80
2021/06/15 05:05:33;;;;;;;0.30;0.30;;;17.40;65.90;;;;;;4994701;28;20038;-80
2021/06/15 05:08:00;;;;;;;0.55;0.40;;;17.40;65.90;;;;;;4994668;28;20373;-79
2021/06/15 05:10:29;;;;;;;0.70;0.35;;;17.40;65.90;;;;;;4992951;28;20040;-80
2021/06/15 05:12:56;;;;;;;0.40;0.30;;;17.40;65.90;;;;;;4994741;28;20046;-79
2021/06/15 05:15:26;;;;;;;0.32;0.30;;;17.40;65.80;;;;;;4994672;28;20034;-80
2021/06/15 05:17:54;;;;;;;0.25;0.20;;;17.50;65.60;;;;;;5012441;28;20038;-79
2021/06/15 05:20:22;;;;;;;0.55;0.30;;;17.50;65.60;;;;;;4992768;28;20392;-77
2021/06/15 05:23:12;;;;;;;0.20;0.20;;;17.40;65.50;;;;;;5012339;28;20577;-76
2021/06/15 05:25:38;;;;;;;0.25;0.25;;;17.50;65.50;;;;;;5010548;28;20046;-77
2021/06/15 05:28:04;;;;;;;0.20;0.20;;;17.50;65.40;;;;;;4993914;28;20049;-77
2021/06/15 05:30:29;;;;;;;0.75;0.32;;;17.50;65.30;;;;;;5012200;28;20045;-77
2021/06/15 05:32:56;;;;;;;0.20;0.20;;;17.60;65.30;;;;;;5010628;28;20437;-77
2021/06/15 05:35:22;;;;;;;0.75;0.40;;;17.60;65.10;;;;;;5011612;28;20057;-76
2021/06/15 05:37:49;;;;;;;0.30;0.30;;;17.60;65.00;;;;;;5019758;28;20045;-75
2021/06/15 05:40:15;;;;;;;0.35;0.30;;;17.60;64.90;;;;;;5010002;28;20045;-75
2021/06/15 05:42:41;;;;;;;0.20;0.20;;;17.60;64.90;;;;;;5026099;28;20103;-75
2021/06/15 05:45:09;;;;;;;0.30;0.30;;;17.60;64.80;;;;;;5024429;28;20034;-75
2021/06/15 05:47:36;;;;;;;0.30;0.30;;;17.70;64.80;;;;;;5008104;28;20042;-75
2021/06/15 05:50:04;;;;;;;0.70;0.20;;;17.70;64.60;;;;;;5026073;28;20080;-75
2021/06/15 05:52:30;;;;;;;0.22;0.20;;;17.80;64.50;;;;;;5026300;28;20050;-75
2021/06/15 05:54:59;;;;;;;0.30;0.30;;;17.80;64.30;;;;;;5025924;28;20048;-75
2021/06/15 05:57:26;;;;;;;0.90;0.30;;;18.00;64.30;;;;;;5027549;28;20045;-75
2021/06/15 05:59:52;;;;;;;0.43;0.30;;;17.90;64.10;;;;;;5027877;28;20034;-75
2021/06/15 06:02:18;;;;;;;0.50;0.30;;;18.00;64.00;;;;;;5013428;28;20109;-74
2021/06/15 06:05:04;;;;;;;0.30;0.20;;;18.10;63.90;;;;;;5003449;28;20097;-76
2021/06/15 06:10:14;;;;;;;0.88;0.40;;;18.20;63.60;;;;;;5014396;28;20042;-77
2021/06/15 06:12:39;;;;;;;0.47;0.38;;;18.30;63.50;;;;;;5014999;28;20041;-77
2021/06/15 06:15:07;;;;;;;0.30;0.30;;;18.20;63.30;;;;;;4997665;28;20041;-77
2021/06/15 06:17:33;;;;;;;0.25;0.20;;;18.30;63.30;;;;;;5011933;28;20041;-78
2021/06/15 06:19:59;;;;;;;0.35;0.35;;;18.30;63.30;;;;;;4997861;28;20049;-77
2021/06/15 06:22:25;;;;;;;0.55;0.30;;;18.30;63.10;;;;;;4994665;28;20030;-77
2021/06/15 06:24:52;;;;;;;0.20;0.20;;;18.40;63.10;;;;;;5013907;28;20034;-77
2021/06/15 06:27:18;;;;;;;0.28;0.28;;;18.40;62.90;;;;;;4997326;28;20030;-77
2021/06/15 06:29:43;;;;;;;0.40;0.30;;;18.40;63.00;;;;;;5015131;28;20567;-77
2021/06/15 06:32:09;;;;;;;0.73;0.30;;;18.40;63.10;;;;;;5014629;28;20034;-78
2021/06/15 06:34:35;;;;;;;0.20;0.20;;;18.30;63.10;;;;;;5013234;28;20041;-77
2021/06/15 06:37:01;;;;;;;0.38;0.22;;;18.30;63.10;;;;;;5014611;28;20128;-77
2021/06/15 06:39:26;;;;;;;0.43;0.20;;;18.30;63.20;;;;;;5013160;28;20038;-78
2021/06/15 06:41:52;;;;;;;1.25;0.22;;;18.30;63.20;;;;;;4998929;28;20044;-77
2021/06/15 06:44:18;;;;;;;1.27;0.40;;;18.30;63.20;;;;;;4996755;28;20383;-76
2021/06/15 06:46:44;;;;;;;0.55;0.40;;;18.30;63.70;;;;;;5014122;28;20041;-76
2021/06/15 06:49:10;;;;;;;0.22;0.22;;;18.30;63.00;;;;;;5013178;28;20565;-76
2021/06/15 06:51:36;;;;;;;0.20;0.20;;;18.40;63.10;;;;;;5012458;28;20049;-76
2021/06/15 06:54:02;;;;;;;0.30;0.30;;;18.50;63.00;;;;;;4996987;28;20026;-77
2021/06/15 06:56:29;;;;;;;0.57;0.30;;;18.50;62.80;;;;;;4997064;28;20038;-76
2021/06/15 06:58:55;;;;;;;0.30;0.30;;;18.60;62.70;;;;;;4998814;28;20038;-76
2021/06/15 07:01:22;;;;;;;0.47;0.20;;;18.70;62.60;;;;;;4998683;28;20141;-76
2021/06/15 07:03:48;;;;;;;0.55;0.30;;;18.90;62.40;;;;;;4996856;28;20136;-76
2021/06/15 07:06:15;;;;;;;0.50;0.30;;;19.10;62.00;;;;;;5013144;28;20057;-76
2021/06/15 07:08:41;;;;;;;0.95;0.38;;;19.30;61.40;;;;;;4997347;28;20100;-78
2021/06/15 07:11:07;;;;;;;1.63;0.40;;;19.50;61.10;;;;;;4997897;28;20034;-78
2021/06/15 07:13:33;;;;;;;0.55;0.40;;;19.60;60.90;;;;;;5015919;28;20046;-79
2021/06/15 07:15:59;;;;;;;0.38;0.35;;;19.70;60.70;;;;;;5015581;28;20030;-77
2021/06/15 07:18:25;;;;;;;1.55;0.32;;;19.80;60.50;;;;;;4998075;28;20073;-76
2021/06/15 07:20:51;;;;;;;0.68;0.32;;;19.80;60.50;;;;;;5013065;28;20119;-76
2021/06/15 07:23:17;;;;;;;0.35;0.30;;;19.90;60.70;;;;;;5012551;28;20045;-76
2021/06/15 07:25:43;;;;;;;0.35;0.30;;;20.00;60.50;;;;;;5012465;28;20435;-77
2021/06/15 07:28:08;;;;;;;0.63;0.30;;;20.20;60.30;;;;;;5011769;28;20038;-77
2021/06/15 07:30:34;;;;;;;0.43;0.30;;;20.50;60.00;;;;;;5032534;28;20060;-76
2021/06/15 07:33:00;;;;;;;0.73;0.40;;;20.70;59.40;;;;;;5013492;28;20034;-76
2021/06/15 07:35:27;;;;;;;0.40;0.40;;;20.80;59.20;;;;;;5025738;28;20079;-76
2021/06/15 07:37:54;;;;;;;0.50;0.30;;;21.00;59.00;;;;;;5024381;28;20048;-76
2021/06/15 07:40:23;;;;;;;0.52;0.38;;;21.10;58.80;;;;;;5004965;28;20041;-77
2021/06/15 07:42:51;;;;;;;0.65;0.30;;;21.30;58.60;;;;;;5008500;28;20030;-76
2021/06/15 07:45:17;;;;;;;0.75;0.40;;;21.50;58.50;;;;;;5024092;28;20034;-77
2021/06/15 07:47:43;;;;;;;1.52;0.40;;;21.80;58.20;;;;;;5024793;28;20489;-77
2021/06/15 07:50:09;;;;;;;0.52;0.40;;;21.90;57.80;;;;;;5008989;28;20010;-78
2021/06/15 07:52:34;;;;;;;0.30;0.30;;;21.90;57.90;;;;;;5031172;28;20037;-76
2021/06/15 07:55:00;;;;;;;0.30;0.20;;;22.10;57.70;;;;;;5030060;28;20097;-75
2021/06/15 07:57:26;;;;;;;0.68;0.40;;;22.10;57.60;;;;;;5028499;28;20038;-74
2021/06/15 07:59:52;;;;;;;0.30;0.20;;;22.10;57.60;;;;;;5028020;28;20030;-75
2021/06/15 08:02:18;;;;;;;0.30;0.30;;;22.10;58.00;;;;;;5027310;28;20022;-75
2021/06/15 08:04:44;;;;;;;0.55;0.20;;;22.00;57.90;;;;;;5025029;28;20034;-75
2021/06/15 08:07:10;;;;;;;1.27;0.35;;;22.10;58.10;;;;;;5032679;28;20013;-75
2021/06/15 08:09:35;;;;;;;0.40;0.30;;;22.00;58.20;;;;;;5029027;28;20476;-75
2021/06/15 08:12:02;;;;;;;0.38;0.30;;;22.10;58.30;;;;;;5029188;28;20120;-75
2021/06/15 08:14:28;;;;;;;0.60;0.30;;;22.20;58.00;;;;;;5026062;28;20038;-75
2021/06/15 08:16:53;;;;;;;1.38;0.38;;;22.40;57.60;;;;;;5025537;28;20052;-75
2021/06/15 08:19:19;;;;;;;0.75;0.40;;;22.40;57.50;;;;;;5022014;28;20036;-75
2021/06/15 08:21:45;;;;;;;0.30;0.30;;;22.30;57.50;;;;;;5019303;28;20477;-79
2021/06/15 08:24:14;;;;;;;0.38;0.30;;;22.20;57.70;;;;;;5016688;28;20041;-80
2021/06/15 08:26:41;;;;;;;0.20;0.20;;;22.40;57.80;;;;;;4986513;28;20026;-78
2021/06/15 08:29:07;;;;;;;0.30;0.30;;;22.50;57.50;;;;;;5023318;28;20488;-76
2021/06/15 08:31:32;;;;;;;0.30;0.30;;;22.70;57.30;;;;;;5028709;28;20117;-78
2021/06/15 08:33:58;;;;;;;0.30;0.30;;;22.50;57.30;;;;;;5027695;28;20060;-77
2021/06/15 08:36:25;;;;;;;0.57;0.30;;;22.30;57.30;;;;;;5016793;28;20038;-78
2021/06/15 08:38:51;;;;;;;1.55;0.30;;;22.30;57.60;;;;;;5001877;28;20034;-78
2021/06/15 08:41:18;;;;;;;0.25;0.25;;;22.40;57.60;;;;;;5018716;28;20476;-78
2021/06/15 08:43:44;;;;;;;0.30;0.30;;;22.30;57.60;;;;;;5007951;28;20121;-78
2021/06/15 08:46:12;;;;;;;0.20;0.20;;;22.30;57.80;;;;;;5049000;22;20048;-78
2021/06/15 08:48:38;;;;;;;0.30;0.30;;;22.10;57.90;;;;;;5030804;28;20097;-78
2021/06/15 08:51:04;;;;;;;0.65;0.30;;;22.00;58.30;;;;;;5032603;28;20057;-77
2021/06/15 08:53:34;;;;;;;0.65;0.30;;;22.20;58.30;;;;;;5028859;28;20050;-77
2021/06/15 08:56:07;;;;;;;1.05;0.30;;;22.40;57.80;;;;;;5020028;28;20042;-76
2021/06/15 08:58:45;;;;;;;1.08;0.47;;;22.80;57.30;;;;;;4986682;28;20523;-75
2021/06/15 09:01:12;;;;;;;0.30;0.30;;;22.90;56.80;;;;;;5016711;28;20073;-74
2021/06/15 09:03:39;;;;;;;0.82;0.40;;;23.10;56.50;;;;;;5015366;28;20065;-75
2021/06/15 09:06:05;;;;;;;0.20;0.20;;;23.20;56.40;;;;;;5021944;28;20040;-75
2021/06/15 09:08:31;;;;;;;0.38;0.30;;;23.00;56.40;;;;;;5011514;28;20504;-75
2021/06/15 09:11:03;;;;;;;0.40;0.40;;;23.00;56.60;;;;;;5012595;28;20045;-75
2021/06/15 09:13:33;;;;;;;0.93;0.40;;;23.00;56.80;;;;;;5019522;28;20083;-80
2021/06/15 09:16:00;;;;;;;0.43;0.32;;;23.10;56.60;;;;;;5006457;28;20061;-77
2021/06/15 09:18:28;;;;;;;0.30;0.30;;;23.60;56.20;;;;;;5004009;28;20050;-77
2021/06/15 09:20:59;;;;;;;0.50;0.25;;;23.80;55.60;;;;;;5025099;28;20046;-77
2021/06/15 09:23:33;;;;;;;0.25;0.20;;;24.00;55.10;;;;;;5052954;28;20399;-76
2021/06/15 09:25:59;;;;;;;0.32;0.30;;;24.30;54.80;;;;;;5042202;28;20095;-77
2021/06/15 09:28:25;;;;;;;0.65;0.35;;;24.30;54.60;;;;;;4996425;28;20045;-76
2021/06/15 09:31:03;;;;;;;0.28;0.28;;;24.30;54.70;;;;;;5054352;28;20040;-77
2021/06/15 09:33:40;;;;;;;0.20;0.20;;;24.30;54.80;;;;;;5063359;28;20037;-79
2021/06/15 09:36:26;;;;;;;0.35;0.35;;;24.30;54.80;;;;;;5032377;28;20044;-77
2021/06/15 09:38:56;;;;;;;0.47;0.38;;;24.30;54.70;;;;;;5033113;28;20124;-78
2021/06/15 09:41:40;;;;;;;0.30;0.30;;;24.30;54.90;;;;;;5026614;28;20049;-77
2021/06/15 09:44:26;;;;;;;1.05;0.35;;;24.10;55.20;;;;;;5030411;28;20281;-77
2021/06/15 09:46:58;;;;;;;0.32;0.32;;;24.10;55.40;;;;;;5033958;28;20053;-79
2021/06/15 09:49:37;;;;;;;0.30;0.30;;;24.30;55.40;;;;;;5022680;28;20094;-79
2021/06/15 09:52:27;;;;;;;0.60;0.40;;;24.40;55.00;;;;;;5010794;28;20048;-78
2021/06/15 09:54:56;;;;;;;1.38;0.40;;;24.70;54.70;;;;;;4999817;28;20065;-77
2021/06/15 09:57:27;;;;;;;0.40;0.20;;;24.80;54.50;;;;;;5012070;28;20053;-75
2021/06/15 10:00:14;;;;;;;0.70;0.40;;;25.00;54.20;;;;;;5007977;28;20119;-78
2021/06/15 10:02:53;;;;;;;0.20;0.20;;;25.10;54.10;;;;;;4986838;28;20504;-77
2021/06/15 10:05:27;;;;;;;0.35;0.30;;;25.20;54.00;;;;;;4991972;28;20868;-77
2021/06/15 10:07:57;;;;;;;0.30;0.30;;;25.30;53.90;;;;;;4985416;28;20046;-79
2021/06/15 10:10:25;;;;;;;0.40;0.40;;;25.40;53.90;;;;;;4994147;28;20027;-76
2021/06/15 10:12:52;;;;;;;0.25;0.25;;;25.50;53.80;;;;;;4967049;28;20145;-78
2021/06/15 10:15:19;;;;;;;0.50;0.30;;;25.70;54.00;;;;;;5010142;28;20046;-77
2021/06/15 10:17:46;;;;;;;0.63;0.25;;;25.80;53.40;;;;;;4969360;28;20050;-79
2021/06/15 10:20:15;;;;;;;0.30;0.30;;;25.70;53.30;;;;;;4947261;28;20197;-78
2021/06/15 10:22:48;;;;;;;0.30;0.30;;;25.80;53.30;;;;;;5005070;28;20036;-82
2021/06/15 10:25:15;;;;;;;0.25;0.25;;;25.80;53.20;;;;;;5026345;28;20033;-78
2021/06/15 10:27:41;;;;;;;0.22;0.20;;;25.80;53.10;;;;;;5031228;28;20049;-76
2021/06/15 10:30:10;;;;;;;0.30;0.30;;;25.90;53.00;;;;;;5000143;28;20450;-77
2021/06/15 10:32:54;;;;;;;0.30;0.30;;;26.00;52.90;;;;;;5016574;28;20030;-76
2021/06/15 10:35:37;;;;;;;0.20;0.20;;;25.90;52.80;;;;;;5034125;28;20030;-77
2021/06/15 10:38:05;;;;;;;0.30;0.30;;;26.00;52.90;;;;;;5016607;28;20036;-75
2021/06/15 10:40:34;;;;;;;1.73;0.40;;;26.10;52.80;;;;;;5016388;28;20080;-76
2021/06/15 10:43:21;;;;;;;0.30;0.30;;;26.20;52.50;;;;;;4991056;28;20037;-76
2021/06/15 10:45:52;;;;;;;1.05;0.30;;;26.20;52.50;;;;;;5054009;28;20025;-75
2021/06/15 10:48:28;;;;;;;0.47;0.40;;;26.20;52.50;;;;;;5053295;28;20076;-76
2021/06/15 10:50:55;;;;;;;0.30;0.30;;;26.20;52.40;;;;;;5043296;28;20471;-78
2021/06/15 10:53:36;;;;;;;0.35;0.30;;;26.10;52.40;;;;;;5034401;28;20033;-77
2021/06/15 10:56:05;;;;;;;0.80;0.50;;;26.10;52.40;;;;;;5033830;28;20495;-78
2021/06/15 10:58:55;;;;;;;0.40;0.40;;;25.90;52.50;;;;;;5035747;28;20037;-77
2021/06/15 11:01:23;;;;;;;0.65;0.30;;;26.00;52.40;;;;;;5004849;28;20428;-79
2021/06/15 11:03:51;;;;;;;0.75;0.30;;;26.10;52.30;;;;;;5033894;28;20037;-76
2021/06/15 11:06:21;;;;;;;0.70;0.30;;;26.30;52.00;;;;;;5036035;28;20075;-78
2021/06/15 11:09:15;;;;;;;0.52;0.30;;;26.30;51.80;;;;;;5020416;28;20192;-77
2021/06/15 11:11:46;;;;;;;0.75;0.45;;;26.40;51.50;;;;;;5019032;28;20140;-76
2021/06/15 11:14:23;;;;;;;0.30;0.30;;;26.40;51.50;;;;;;5015815;28;20057;-78
2021/06/15 11:16:52;;;;;;;0.93;0.30;;;26.30;52.10;;;;;;5015730;28;20076;-76
2021/06/15 11:19:29;;;;;;;1.77;0.50;;;26.40;51.90;;;;;;5018504;28;20091;-77
2021/06/15 11:22:10;;;;;;;0.75;0.30;;;26.50;51.10;;;;;;5017423;28;20041;-76
2021/06/15 11:24:49;;;;;;;0.40;0.40;;;26.60;51.00;;;;;;5036262;28;20120;-75
2021/06/15 11:27:37;;;;;;;0.55;0.40;;;26.70;50.90;;;;;;5053727;28;20039;-75
2021/06/15 11:30:21;;;;;;;1.33;0.30;;;26.70;50.80;;;;;;5034495;28;20049;-76
2021/06/15 11:33:04;;;;;;;0.30;0.30;;;26.70;50.70;;;;;;5016025;28;20029;-76
2021/06/15 11:35:37;;;;;;;1.27;0.40;;;26.80;50.70;;;;;;5032529;28;20022;-76
2021/06/15 11:38:05;;;;;;;0.30;0.30;;;26.90;50.50;;;;;;5019600;28;20037;-77
2021/06/15 11:40:34;;;;;;;0.35;0.32;;;26.80;50.40;;;;;;5036094;28;20399;-77
2021/06/15 11:43:17;;;;;;;0.30;0.30;;;26.90;50.50;;;;;;5053660;28;20045;-76
2021/06/15 11:45:46;;;;;;;0.30;0.30;;;26.80;50.20;;;;;;5035669;28;20087;-76
2021/06/15 11:48:29;;;;;;;1.15;0.40;;;26.80;50.20;;;;;;5061683;28;20091;-76
2021/06/15 11:50:55;;;;;;;0.70;0.30;;;26.70;50.30;;;;;;5015745;28;20043;-78
2021/06/15 11:53:23;;;;;;;0.65;0.38;;;26.70;50.30;;;;;;5049570;28;20051;-78
2021/06/15 11:55:52;;;;;;;0.30;0.30;;;26.70;50.30;;;;;;5068782;28;20041;-78
2021/06/15 11:58:26;;;;;;;0.30;0.30;;;26.70;50.90;;;;;;5031341;28;20123;-78
2021/06/15 12:00:59;;;;;;;0.25;0.25;;;26.70;50.10;;;;;;5011337;28;20060;-75
2021/06/15 12:03:27;;;;;;;0.30;0.30;;;26.70;50.20;;;;;;5050651;28;20021;-76
2021/06/15 12:05:58;;;;;;;0.30;0.30;;;26.70;50.00;;;;;;5029495;28;20033;-76
2021/06/15 12:08:32;;;;;;;0.25;0.25;;;26.80;49.80;;;;;;5045879;28;20049;-78
2021/06/15 12:10:58;;;;;;;0.20;0.20;;;26.80;49.70;;;;;;5019618;28;20030;-75
2021/06/15 12:13:26;;;;;;;0.30;0.30;;;26.80;49.70;;;;;;4978730;28;20038;-78
2021/06/15 12:15:54;;;;;;;0.45;0.35;;;26.80;49.70;;;;;;4984368;28;20092;-78
2021/06/15 12:18:57;;;;;;;0.70;0.38;;;26.80;49.70;;;;;;4994724;28;20040;-79
2021/06/15 12:21:26;;;;;;;0.30;0.30;;;26.70;49.80;;;;;;4973776;28;20033;-78
2021/06/15 12:23:55;;;;;;;0.30;0.30;;;26.70;49.70;;;;;;4967261;28;20044;-80
2021/06/15 12:26:26;;;;;;;0.55;0.47;;;26.80;49.90;;;;;;4973244;28;20273;-78
2021/06/15 12:28:57;;;;;;;0.30;0.30;;;26.80;49.90;;;;;;4977475;28;20089;-78
2021/06/15 12:31:30;;;;;;;0.40;0.30;;;26.60;49.90;;;;;;4977246;28;20041;-78
2021/06/15 12:33:58;;;;;;;0.77;0.38;;;26.40;50.10;;;;;;4975539;28;20045;-78
2021/06/15 12:36:28;;;;;;;0.63;0.40;;;26.50;50.30;;;;;;4967726;28;20081;-77
2021/06/15 12:39:16;;;;;;;0.32;0.30;;;26.50;50.10;;;;;;4961551;28;20158;-79
2021/06/15 12:41:47;;;;;;;0.30;0.30;;;26.70;49.90;;;;;;4996808;28;20103;-78
2021/06/15 12:44:14;;;;;;;1.27;0.40;;;26.70;49.70;;;;;;4998813;28;20108;-79
2021/06/15 12:46:43;;;;;;;1.88;0.77;;;26.70;49.60;;;;;;4994869;28;20039;-79
2021/06/15 12:49:22;;;;;;;0.40;0.40;;;26.70;49.40;;;;;;4996051;28;20119;-79
2021/06/15 12:52:10;;;;;;;0.35;0.30;;;26.80;49.20;;;;;;4970350;28;20158;-78
2021/06/15 12:54:40;;;;;;;0.35;0.30;;;26.70;49.30;;;;;;4923018;28;20042;-76
2021/06/15 12:57:10;;;;;;;0.30;0.30;;;26.60;49.40;;;;;;4964344;28;20043;-77
2021/06/15 12:59:41;;;;;;;0.50;0.40;;;26.50;49.50;;;;;;4955148;28;20082;-79
2021/06/15 13:02:16;;;;;;;0.60;0.30;;;26.50;49.50;;;;;;4920995;28;20151;-78
2021/06/15 13:05:00;;;;;;;0.30;0.30;;;26.60;49.50;;;;;;4936635;28;20043;-80
2021/06/15 13:07:28;;;;;;;0.28;0.28;;;26.50;49.40;;;;;;4937539;28;20138;-79
2021/06/15 13:09:55;;;;;;;0.30;0.30;;;26.60;49.30;;;;;;4952331;28;20047;-79